createdAt,value
2023-04-20T00:01:13.843Z,100.00
2023-04-20T00:03:41.320Z,100.00
2023-04-20T00:06:09.190Z,100.00
2023-04-20T00:08:36.261Z,100.00
2023-04-20T00:11:03.343Z,100.00
2023-04-20T00:13:30.669Z,100.00
2023-04-20T00:15:57.770Z,100.00
2023-04-20T00:18:24.808Z,100.00
2023-04-20T00:20:51.973Z,100.00
2023-04-20T00:23:19.018Z,100.00
2023-04-20T00:25:46.035Z,100.00
2023-04-20T00:28:13.241Z,100.00
2023-04-20T00:30:41.265Z,100.00
2023-04-20T00:33:08.462Z,100.00
2023-04-20T00:35:35.680Z,100.00
2023-04-20T00:38:02.839Z,100.00
2023-04-20T00:40:30.275Z,100.00
2023-04-20T00:42:57.434Z,100.00
2023-04-20T00:45:24.555Z,100.00
2023-04-20T00:47:51.730Z,100.00
2023-04-20T00:50:19.086Z,100.00
2023-04-20T00:52:46.897Z,100.00
2023-04-20T00:55:14.002Z,100.00
2023-04-20T00:57:41.667Z,100.00
2023-04-20T01:00:10.586Z,100.00
2023-04-20T01:02:37.831Z,100.00
2023-04-20T01:05:08.460Z,100.00
2023-04-20T01:07:36.722Z,100.00
2023-04-20T01:10:04.349Z,100.00
2023-04-20T01:12:31.434Z,100.00
2023-04-20T01:14:58.462Z,100.00
2023-04-20T01:17:25.706Z,100.00
2023-04-20T01:19:52.831Z,100.00
2023-04-20T01:22:21.368Z,100.00
2023-04-20T01:24:48.957Z,100.00
2023-04-20T01:27:17.111Z,100.00
2023-04-20T01:29:44.559Z,100.00
2023-04-20T01:32:12.128Z,100.00
2023-04-20T01:34:39.172Z,100.00
2023-04-20T01:37:08.282Z,100.00
2023-04-20T01:39:38.887Z,100.00
2023-04-20T01:42:06.132Z,100.00
2023-04-20T01:44:33.216Z,100.00
2023-04-20T01:47:00.511Z,100.00
2023-04-20T01:49:27.784Z,100.00
2023-04-20T01:51:55.696Z,100.00
2023-04-20T01:54:22.902Z,100.00
2023-04-20T01:56:49.955Z,100.00
2023-04-20T01:59:17.229Z,100.00
2023-04-20T02:01:44.463Z,100.00
2023-04-20T02:04:11.642Z,100.00
2023-04-20T02:06:40.948Z,100.00
2023-04-20T02:09:10.198Z,100.00
2023-04-20T02:11:37.371Z,100.00
2023-04-20T02:14:06.841Z,100.00
2023-04-20T02:16:35.508Z,100.00
2023-04-20T02:19:03.055Z,100.00
2023-04-20T02:21:30.249Z,100.00
2023-04-20T02:23:57.583Z,100.00
2023-04-20T02:26:26.826Z,100.00
2023-04-20T02:28:53.935Z,100.00
2023-04-20T02:31:21.138Z,100.00
2023-04-20T02:33:49.928Z,100.00
2023-04-20T02:36:17.068Z,100.00
2023-04-20T02:38:44.087Z,100.00
2023-04-20T02:41:11.192Z,100.00
2023-04-20T02:43:38.480Z,100.00
2023-04-20T02:46:06.153Z,100.00
2023-04-20T02:48:33.244Z,100.00
2023-04-20T02:51:01.212Z,100.00
2023-04-20T02:53:33.318Z,100.00
2023-04-20T02:56:19.052Z,100.00
2023-04-20T02:58:52.231Z,100.00
2023-04-20T03:01:42.492Z,100.00
2023-04-20T03:04:22.229Z,100.00
2023-04-20T03:06:58.721Z,100.00
2023-04-20T03:09:29.550Z,100.00
2023-04-20T03:12:05.204Z,100.00
2023-04-20T03:14:48.124Z,100.00
2023-04-20T03:17:16.639Z,100.00
2023-04-20T03:19:43.989Z,100.00
2023-04-20T03:22:11.294Z,100.00
2023-04-20T03:24:38.412Z,100.00
2023-04-20T03:27:15.951Z,100.00
2023-04-20T03:29:55.743Z,100.00
2023-04-20T03:32:23.750Z,100.00
2023-04-20T03:34:50.789Z,100.00
2023-04-20T03:37:17.911Z,100.00
2023-04-20T03:39:47.582Z,100.00
2023-04-20T03:42:14.726Z,100.00
2023-04-20T03:44:42.076Z,100.00
2023-04-20T03:47:10.907Z,100.00
2023-04-20T03:49:38.171Z,100.00
2023-04-20T03:52:05.633Z,100.00
2023-04-20T03:54:33.205Z,100.00
2023-04-20T03:57:02.131Z,100.00
2023-04-20T03:59:29.351Z,100.00
2023-04-20T04:01:56.811Z,100.00
2023-04-20T04:04:24.247Z,100.00
2023-04-20T04:06:51.610Z,100.00
2023-04-20T04:09:18.837Z,100.00
2023-04-20T04:11:46.169Z,100.00
2023-04-20T04:14:13.381Z,100.00
2023-04-20T04:16:41.043Z,100.00
2023-04-20T04:19:09.785Z,100.00
2023-04-20T04:21:37.497Z,100.00
2023-04-20T04:24:05.894Z,100.00
2023-04-20T04:26:41.508Z,100.00
2023-04-20T04:29:10.488Z,100.00
2023-04-20T04:31:37.732Z,100.00
2023-04-20T04:34:13.729Z,100.00
2023-04-20T04:36:45.988Z,100.00
2023-04-20T04:39:16.918Z,100.00
2023-04-20T04:41:53.192Z,100.00
2023-04-20T04:44:31.832Z,100.00
2023-04-20T04:47:02.536Z,100.00
2023-04-20T04:49:30.849Z,100.00
2023-04-20T04:51:57.897Z,100.00
2023-04-20T04:54:24.964Z,100.00
2023-04-20T04:56:52.008Z,100.00
2023-04-20T04:59:19.196Z,100.00
2023-04-20T05:01:46.369Z,100.00
2023-04-20T05:04:13.605Z,100.00
2023-04-20T05:06:40.919Z,100.00
2023-04-20T05:09:08.225Z,100.00
2023-04-20T05:11:35.367Z,100.00
2023-04-20T05:14:03.476Z,100.00
2023-04-20T05:16:30.614Z,100.00
2023-04-20T05:18:57.789Z,100.00
2023-04-20T05:21:24.912Z,100.00
2023-04-20T05:23:52.036Z,100.00
2023-04-20T05:26:19.386Z,100.00
2023-04-20T05:28:46.523Z,100.00
2023-04-20T05:31:13.657Z,100.00
2023-04-20T05:33:41.065Z,100.00
2023-04-20T05:36:08.831Z,100.00
2023-04-20T05:38:35.926Z,100.00
2023-04-20T05:41:03.067Z,100.00
2023-04-20T05:43:30.147Z,100.00
2023-04-20T05:45:57.239Z,100.00
2023-04-20T05:48:27.855Z,100.00
2023-04-20T05:50:56.846Z,100.00
2023-04-20T05:53:23.927Z,100.00
2023-04-20T05:55:51.012Z,100.00
2023-04-20T05:58:19.377Z,100.00
2023-04-20T06:00:46.495Z,100.00
2023-04-20T06:03:13.810Z,100.00
2023-04-20T06:05:41.116Z,100.00
2023-04-20T06:08:08.309Z,100.00
2023-04-20T06:10:35.582Z,100.00
2023-04-20T06:13:02.861Z,100.00
2023-04-20T06:15:29.924Z,100.00
2023-04-20T06:17:57.324Z,100.00
2023-04-20T06:20:24.596Z,100.00
2023-04-20T06:22:51.699Z,100.00
2023-04-20T06:25:18.852Z,100.00
2023-04-20T06:27:46.666Z,100.00
2023-04-20T06:30:14.155Z,100.00
2023-04-20T06:32:41.497Z,98.72
2023-04-20T06:35:08.968Z,98.11
2023-04-20T06:37:36.658Z,95.73
2023-04-20T06:40:10.632Z,98.11
2023-04-20T06:42:37.967Z,98.20
2023-04-20T06:45:05.969Z,100.00
2023-04-20T06:47:33.892Z,100.00
2023-04-20T06:50:01.692Z,100.00
2023-04-20T06:52:28.913Z,99.99
2023-04-20T06:54:57.862Z,96.84
2023-04-20T06:57:24.954Z,98.77
2023-04-20T06:59:52.022Z,96.39
2023-04-20T07:02:19.252Z,96.61
2023-04-20T07:04:46.463Z,94.99
2023-04-20T07:07:13.569Z,93.62
2023-04-20T07:09:40.673Z,92.66
2023-04-20T07:12:08.156Z,92.40
2023-04-20T07:14:35.276Z,91.63
2023-04-20T07:17:02.379Z,90.98
2023-04-20T07:19:29.471Z,90.66
2023-04-20T07:21:56.527Z,91.54
2023-04-20T07:24:23.602Z,90.44
2023-04-20T07:26:51.400Z,89.78
2023-04-20T07:29:18.657Z,91.38
2023-04-20T07:31:46.053Z,88.26
2023-04-20T07:34:13.270Z,87.11
2023-04-20T07:36:40.397Z,86.06
2023-04-20T07:39:07.566Z,86.26
2023-04-20T07:41:34.660Z,85.84
2023-04-20T07:44:01.795Z,84.85
2023-04-20T07:46:29.025Z,86.73
2023-04-20T07:48:56.083Z,87.16
2023-04-20T07:51:23.233Z,86.24
2023-04-20T07:53:50.391Z,86.11
2023-04-20T07:56:17.475Z,86.38
2023-04-20T07:58:44.632Z,86.64
2023-04-20T08:01:11.729Z,84.74
2023-04-20T08:03:39.111Z,84.88
2023-04-20T08:06:06.643Z,84.12
2023-04-20T08:08:33.758Z,83.28
2023-04-20T08:11:00.986Z,83.34
2023-04-20T08:13:28.378Z,82.77
2023-04-20T08:15:55.685Z,81.00
2023-04-20T08:18:22.816Z,77.37
2023-04-20T08:20:51.378Z,78.02
2023-04-20T08:23:18.566Z,79.31
2023-04-20T08:25:45.740Z,77.36
2023-04-20T08:28:24.306Z,75.53
2023-04-20T08:30:56.874Z,77.37
2023-04-20T08:33:24.093Z,77.22
2023-04-20T08:35:54.293Z,77.72
2023-04-20T08:38:30.795Z,79.73
2023-04-20T08:41:00.843Z,75.65
2023-04-20T08:43:27.930Z,76.29
2023-04-20T08:45:57.834Z,76.00
2023-04-20T08:48:26.227Z,75.94
2023-04-20T08:50:54.684Z,77.00
2023-04-20T08:53:22.690Z,77.90
2023-04-20T08:55:50.368Z,79.30
2023-04-20T08:58:17.975Z,76.84
2023-04-20T09:00:48.466Z,75.73
2023-04-20T09:03:15.830Z,75.69
2023-04-20T09:05:44.264Z,74.51
2023-04-20T09:08:11.359Z,77.35
2023-04-20T09:10:39.990Z,76.56
2023-04-20T09:13:07.416Z,78.00
2023-04-20T09:15:34.478Z,77.15
2023-04-20T09:18:11.101Z,77.90
2023-04-20T09:20:38.272Z,79.85
2023-04-20T09:23:15.238Z,79.39
2023-04-20T09:25:43.613Z,82.04
2023-04-20T09:28:11.435Z,83.30
2023-04-20T09:30:45.516Z,83.63
2023-04-20T09:33:14.383Z,85.08
2023-04-20T09:35:42.466Z,83.49
2023-04-20T09:38:10.362Z,81.47
2023-04-20T09:40:37.953Z,82.19
2023-04-20T09:43:15.414Z,81.57
2023-04-20T09:45:42.883Z,82.61
2023-04-20T09:48:10.413Z,83.07
2023-04-20T09:50:48.529Z,85.45
2023-04-20T09:53:17.542Z,85.52
2023-04-20T09:55:48.660Z,86.62
2023-04-20T09:58:18.145Z,87.04
2023-04-20T10:00:45.332Z,86.16
2023-04-20T10:03:16.429Z,85.76
2023-04-20T10:05:43.727Z,85.58
2023-04-20T10:08:11.467Z,82.28
2023-04-20T10:10:46.300Z,83.33
2023-04-20T10:13:14.611Z,84.91
2023-04-20T10:15:42.316Z,86.15
2023-04-20T10:18:19.361Z,86.66
2023-04-20T10:20:46.701Z,85.99
2023-04-20T10:23:16.110Z,86.48
2023-04-20T10:25:45.416Z,84.68
2023-04-20T10:28:12.820Z,84.90
2023-04-20T10:30:50.390Z,84.81
2023-04-20T10:33:18.092Z,83.99
2023-04-20T10:35:49.300Z,85.56
2023-04-20T10:38:27.453Z,85.70
2023-04-20T10:40:54.519Z,86.30
2023-04-20T10:43:22.279Z,87.68
2023-04-20T10:45:50.302Z,87.14
2023-04-20T10:48:18.353Z,88.74
2023-04-20T10:50:46.098Z,88.80
2023-04-20T10:53:23.556Z,89.33
2023-04-20T10:56:00.233Z,90.06
2023-04-20T10:58:27.482Z,90.75
2023-04-20T11:01:01.568Z,90.73
2023-04-20T11:03:29.596Z,92.72
2023-04-20T11:06:01.059Z,95.67
2023-04-20T11:08:37.858Z,97.91
2023-04-20T11:11:05.685Z,99.15
2023-04-20T11:13:33.216Z,99.75
2023-04-20T11:16:00.499Z,100.00
2023-04-20T11:18:27.640Z,100.00
2023-04-20T11:20:55.162Z,100.00
2023-04-20T11:23:22.761Z,100.00
2023-04-20T11:25:53.891Z,100.00
2023-04-20T11:28:21.170Z,100.00
2023-04-20T11:30:49.739Z,100.00
2023-04-20T11:33:29.299Z,100.00
2023-04-20T11:36:01.012Z,100.00
2023-04-20T11:38:32.110Z,100.00
2023-04-20T11:41:04.557Z,100.00
2023-04-20T11:43:32.568Z,100.00
2023-04-20T11:46:00.040Z,100.00
2023-04-20T11:48:28.283Z,100.00
2023-04-20T11:50:55.394Z,100.00
2023-04-20T11:53:22.487Z,100.00
2023-04-20T11:55:49.525Z,100.00
2023-04-20T11:58:16.565Z,100.00
2023-04-20T12:00:43.671Z,100.00
2023-04-20T12:03:11.013Z,100.00
2023-04-20T12:05:38.398Z,100.00
2023-04-20T12:08:05.976Z,100.00
2023-04-20T12:10:33.011Z,100.00
2023-04-20T12:13:01.154Z,100.00
2023-04-20T12:15:28.225Z,100.00
2023-04-20T12:17:55.824Z,100.00
2023-04-20T12:20:23.179Z,100.00
2023-04-20T12:22:50.310Z,100.00
2023-04-20T12:25:17.443Z,100.00
2023-04-20T12:27:44.555Z,100.00
2023-04-20T12:30:12.171Z,100.00
2023-04-20T12:32:39.613Z,100.00
2023-04-20T12:35:08.520Z,100.00
2023-04-20T12:37:35.769Z,100.00
2023-04-20T12:40:05.652Z,100.00
2023-04-20T12:42:32.792Z,100.00
2023-04-20T12:44:59.913Z,100.00
2023-04-20T12:47:27.095Z,100.00
2023-04-20T12:49:55.067Z,100.00
2023-04-20T12:52:22.208Z,100.00
2023-04-20T12:54:49.932Z,98.70
2023-04-20T12:57:17.090Z,100.00
2023-04-20T12:59:44.181Z,99.30
2023-04-20T13:02:11.977Z,96.32
2023-04-20T13:04:39.186Z,96.65
2023-04-20T13:07:07.065Z,96.15
2023-04-20T13:09:34.162Z,96.23
2023-04-20T13:12:01.345Z,95.45
2023-04-20T13:14:28.473Z,96.49
2023-04-20T13:16:55.902Z,97.46
2023-04-20T13:19:23.219Z,96.13
2023-04-20T13:21:50.509Z,92.19
2023-04-20T13:24:17.865Z,93.65
2023-04-20T13:26:45.208Z,94.10
2023-04-20T13:29:12.356Z,93.35
2023-04-20T13:31:40.627Z,95.23
2023-04-20T13:34:07.860Z,94.86
2023-04-20T13:36:34.964Z,96.11
2023-04-20T13:39:02.155Z,94.98
2023-04-20T13:41:29.282Z,96.37
2023-04-20T13:43:57.706Z,95.39
2023-04-20T13:46:24.921Z,97.39
2023-04-20T13:48:52.108Z,97.57
2023-04-20T13:51:19.460Z,95.40
2023-04-20T13:53:49.672Z,94.18
2023-04-20T13:56:16.946Z,93.96
2023-04-20T13:58:44.243Z,92.48
2023-04-20T14:01:12.356Z,93.76
2023-04-20T14:03:39.632Z,93.68
2023-04-20T14:06:06.956Z,92.61
2023-04-20T14:08:34.046Z,93.78
2023-04-20T14:11:01.152Z,94.25
2023-04-20T14:13:28.381Z,92.65
2023-04-20T14:15:55.472Z,91.36
2023-04-20T14:18:22.651Z,92.52
2023-04-20T14:20:52.354Z,91.52
2023-04-20T14:23:19.796Z,90.82
2023-04-20T14:25:46.906Z,92.42
2023-04-20T14:28:14.645Z,90.24
2023-04-20T14:30:43.221Z,91.75
2023-04-20T14:33:10.740Z,92.17
2023-04-20T14:35:38.016Z,91.75
2023-04-20T14:38:05.367Z,91.92
2023-04-20T14:40:32.494Z,92.18
2023-04-20T14:42:59.640Z,91.70
2023-04-20T14:45:26.700Z,90.68
2023-04-20T14:47:54.899Z,89.81
2023-04-20T14:50:22.655Z,88.71
2023-04-20T14:52:49.812Z,89.57
2023-04-20T14:55:17.046Z,89.39
2023-04-20T14:57:44.135Z,91.22
2023-04-20T15:00:11.698Z,91.62
2023-04-20T15:02:39.040Z,91.30
2023-04-20T15:05:10.003Z,90.95
2023-04-20T15:07:37.771Z,92.05
2023-04-20T15:10:05.673Z,91.02
2023-04-20T15:12:32.836Z,92.17
2023-04-20T15:14:59.923Z,92.03
2023-04-20T15:17:27.043Z,90.74
2023-04-20T15:19:54.218Z,90.38
2023-04-20T15:22:21.460Z,90.46
2023-04-20T15:24:48.550Z,90.89
2023-04-20T15:27:17.104Z,90.48
2023-04-20T15:29:44.167Z,91.82
2023-04-20T15:32:11.361Z,90.23
2023-04-20T15:34:38.540Z,91.08
2023-04-20T15:37:05.778Z,91.17
2023-04-20T15:39:32.842Z,90.27
2023-04-20T15:41:59.946Z,91.37
2023-04-20T15:44:27.066Z,90.52
2023-04-20T15:46:54.144Z,91.10
2023-04-20T15:49:21.548Z,91.03
2023-04-20T15:51:48.774Z,91.01
2023-04-20T15:54:16.145Z,91.21
2023-04-20T15:56:43.439Z,92.49
2023-04-20T15:59:10.535Z,91.71
2023-04-20T16:01:37.776Z,91.04
2023-04-20T16:04:05.109Z,90.31
2023-04-20T16:06:32.417Z,90.68
2023-04-20T16:08:59.497Z,90.32
2023-04-20T16:11:26.641Z,90.15
2023-04-20T16:13:55.411Z,89.81
2023-04-20T16:16:22.817Z,90.15
2023-04-20T16:18:50.872Z,91.28
2023-04-20T16:21:18.667Z,90.45
2023-04-20T16:23:45.790Z,90.20
2023-04-20T16:26:12.820Z,89.54
2023-04-20T16:28:39.852Z,89.44
2023-04-20T16:31:07.061Z,88.74
2023-04-20T16:33:36.752Z,88.35
2023-04-20T16:36:04.193Z,88.88
2023-04-20T16:38:31.252Z,89.15
2023-04-20T16:40:58.430Z,88.91
2023-04-20T16:43:25.926Z,89.31
2023-04-20T16:45:53.104Z,88.92
2023-04-20T16:48:20.160Z,88.77
2023-04-20T16:50:47.252Z,89.00
2023-04-20T16:53:14.329Z,88.61
2023-04-20T16:55:41.457Z,89.64
2023-04-20T16:58:08.548Z,90.03
2023-04-20T17:00:35.828Z,90.04
2023-04-20T17:03:06.012Z,90.28
2023-04-20T17:05:33.206Z,89.84
2023-04-20T17:08:00.216Z,89.53
2023-04-20T17:10:27.284Z,89.62
2023-04-20T17:12:54.350Z,89.82
2023-04-20T17:15:21.529Z,90.17
2023-04-20T17:17:48.638Z,90.92
2023-04-20T17:20:16.101Z,90.81
2023-04-20T17:22:43.233Z,90.06
2023-04-20T17:25:10.360Z,89.66
2023-04-20T17:27:37.441Z,89.97
2023-04-20T17:30:05.109Z,89.68
2023-04-20T17:32:32.172Z,90.58
2023-04-20T17:34:59.308Z,91.02
2023-04-20T17:37:26.460Z,92.36
2023-04-20T17:39:53.896Z,92.16
2023-04-20T17:42:21.008Z,93.24
2023-04-20T17:44:48.057Z,92.46
2023-04-20T17:47:15.215Z,93.21
2023-04-20T17:49:43.325Z,95.40
2023-04-20T17:52:14.899Z,96.58
2023-04-20T17:54:42.171Z,99.21
2023-04-20T17:57:09.528Z,99.74
2023-04-20T17:59:36.547Z,100.00
2023-04-20T18:02:03.801Z,100.00
2023-04-20T18:04:31.314Z,100.00
2023-04-20T18:06:58.461Z,100.00
2023-04-20T18:09:25.544Z,100.00
2023-04-20T18:11:52.953Z,100.00
2023-04-20T18:14:21.159Z,100.00
2023-04-20T18:16:51.886Z,100.00
2023-04-20T18:19:19.104Z,100.00
2023-04-20T18:21:46.321Z,100.00
2023-04-20T18:24:13.418Z,100.00
2023-04-20T18:26:40.517Z,100.00
2023-04-20T18:29:07.620Z,100.00
2023-04-20T18:31:34.801Z,100.00
2023-04-20T18:34:01.966Z,100.00
2023-04-20T18:36:29.682Z,100.00
2023-04-20T18:38:57.455Z,100.00
2023-04-20T18:41:25.738Z,100.00
2023-04-20T18:43:53.542Z,100.00
2023-04-20T18:46:20.717Z,100.00
2023-04-20T18:48:47.813Z,100.00
2023-04-20T18:51:14.991Z,100.00
2023-04-20T18:53:42.079Z,100.00
2023-04-20T18:56:10.280Z,100.00
2023-04-20T18:58:37.520Z,100.00
2023-04-20T19:01:05.010Z,100.00
2023-04-20T19:03:32.432Z,100.00
2023-04-20T19:05:59.684Z,100.00
2023-04-20T19:08:26.881Z,100.00
2023-04-20T19:10:57.346Z,100.00
2023-04-20T19:13:24.662Z,100.00
2023-04-20T19:15:55.076Z,100.00
2023-04-20T19:18:22.275Z,100.00
2023-04-20T19:20:49.349Z,100.00
2023-04-20T19:23:17.884Z,100.00
2023-04-20T19:25:45.009Z,100.00
2023-04-20T19:28:12.238Z,100.00
2023-04-20T19:30:39.528Z,100.00
2023-04-20T19:33:06.807Z,100.00
2023-04-20T19:35:33.919Z,100.00
2023-04-20T19:38:01.068Z,100.00
2023-04-20T19:40:28.408Z,100.00
2023-04-20T19:42:55.553Z,100.00
2023-04-20T19:45:23.627Z,100.00
2023-04-20T19:47:51.817Z,100.00
2023-04-20T19:50:19.061Z,100.00
2023-04-20T19:52:46.218Z,100.00
2023-04-20T19:55:13.448Z,100.00
2023-04-20T19:57:40.609Z,100.00
2023-04-20T20:00:08.822Z,100.00
2023-04-20T20:02:44.787Z,100.00
2023-04-20T20:05:12.226Z,100.00
2023-04-20T20:07:39.291Z,100.00
2023-04-20T20:10:06.501Z,100.00
2023-04-20T20:12:33.704Z,100.00
2023-04-20T20:15:01.066Z,100.00
2023-04-20T20:17:28.268Z,100.00
2023-04-20T20:19:56.160Z,100.00
2023-04-20T20:22:23.269Z,100.00
2023-04-20T20:24:52.220Z,100.00
2023-04-20T20:27:19.394Z,100.00
2023-04-20T20:29:46.593Z,100.00
2023-04-20T20:32:13.664Z,100.00
2023-04-20T20:34:41.380Z,100.00
2023-04-20T20:37:10.295Z,100.00
2023-04-20T20:39:38.676Z,100.00
2023-04-20T20:42:07.133Z,100.00
2023-04-20T20:44:40.090Z,100.00
2023-04-20T20:47:07.257Z,100.00
2023-04-20T20:49:34.588Z,100.00
2023-04-20T20:52:02.382Z,100.00
2023-04-20T20:54:29.447Z,100.00
2023-04-20T20:56:57.539Z,100.00
2023-04-20T20:59:24.698Z,100.00
2023-04-20T21:01:51.753Z,100.00
2023-04-20T21:04:19.001Z,100.00
2023-04-20T21:06:46.120Z,100.00
2023-04-20T21:09:14.732Z,100.00
2023-04-20T21:11:41.998Z,100.00
2023-04-20T21:14:09.143Z,100.00
2023-04-20T21:16:36.294Z,100.00
2023-04-20T21:19:03.406Z,100.00
2023-04-20T21:21:30.435Z,100.00
2023-04-20T21:23:57.483Z,100.00
2023-04-20T21:26:24.606Z,100.00
2023-04-20T21:28:51.639Z,100.00
2023-04-20T21:31:18.719Z,100.00
2023-04-20T21:33:46.001Z,100.00
2023-04-20T21:36:13.038Z,100.00
2023-04-20T21:38:40.199Z,100.00
2023-04-20T21:41:07.685Z,100.00
2023-04-20T21:43:34.729Z,100.00
2023-04-20T21:46:01.800Z,100.00
2023-04-20T21:48:29.109Z,100.00
2023-04-20T21:50:56.146Z,100.00
2023-04-20T21:53:23.299Z,100.00
2023-04-20T21:55:50.629Z,100.00
2023-04-20T21:58:17.715Z,100.00
2023-04-20T22:00:44.776Z,100.00
2023-04-20T22:03:12.102Z,100.00
2023-04-20T22:05:39.255Z,100.00
2023-04-20T22:08:06.734Z,100.00
2023-04-20T22:10:33.888Z,100.00
2023-04-20T22:13:00.951Z,100.00
2023-04-20T22:15:28.069Z,100.00
2023-04-20T22:17:55.266Z,100.00
2023-04-20T22:20:22.522Z,100.00
2023-04-20T22:22:49.770Z,100.00
2023-04-20T22:25:16.866Z,100.00
2023-04-20T22:27:44.140Z,100.00
2023-04-20T22:30:11.455Z,100.00
2023-04-20T22:32:38.807Z,100.00
2023-04-20T22:35:06.244Z,100.00
2023-04-20T22:37:33.599Z,100.00
2023-04-20T22:40:00.775Z,100.00
2023-04-20T22:42:27.922Z,100.00
2023-04-20T22:44:55.190Z,100.00
2023-04-20T22:47:22.453Z,100.00
2023-04-20T22:49:51.443Z,100.00
2023-04-20T22:52:18.631Z,100.00
2023-04-20T22:54:48.232Z,100.00
2023-04-20T22:57:16.055Z,100.00
2023-04-20T22:59:43.231Z,100.00
2023-04-20T23:02:10.617Z,100.00
2023-04-20T23:04:37.820Z,100.00
2023-04-20T23:07:05.095Z,100.00
2023-04-20T23:09:33.914Z,100.00
2023-04-20T23:12:03.473Z,99.56
2023-04-20T23:14:30.536Z,100.00
2023-04-20T23:17:00.074Z,99.89
2023-04-20T23:19:28.401Z,100.00
2023-04-20T23:21:55.603Z,99.37
2023-04-20T23:24:22.698Z,99.31
2023-04-20T23:26:49.795Z,99.02
2023-04-20T23:29:17.141Z,97.66
2023-04-20T23:31:44.529Z,98.75
2023-04-20T23:34:11.865Z,98.67
2023-04-20T23:36:39.054Z,98.37
2023-04-20T23:39:06.348Z,98.73
2023-04-20T23:41:33.653Z,97.42
2023-04-20T23:44:00.897Z,96.49
2023-04-20T23:46:28.395Z,97.26
2023-04-20T23:48:55.819Z,97.77
2023-04-20T23:51:22.979Z,98.34
2023-04-20T23:53:50.149Z,98.59
2023-04-20T23:56:17.212Z,97.34
2023-04-20T23:58:44.416Z,96.74
